sensor_id;sensor_type;location;lat;lon;timestamp;temperature;humidity
7576;DHT22;3829;50.798;4.358;2023-08-06T00:00:04;15.60;99.90
7576;DHT22;3829;50.798;4.358;2023-08-06T00:02:30;15.60;99.90
7576;DHT22;3829;50.798;4.358;2023-08-06T00:04:55;15.60;99.90
7576;DHT22;3829;50.798;4.358;2023-08-06T00:07:21;15.60;99.90
7576;DHT22;3829;50.798;4.358;2023-08-06T00:09:47;15.60;99.90
7576;DHT22;3829;50.798;4.358;2023-08-06T00:12:12;15.60;99.90
7576;DHT22;3829;50.798;4.358;2023-08-06T00:14:38;15.60;99.90
7576;DHT22;3829;50.798;4.358;2023-08-06T00:17:03;15.60;99.90
7576;DHT22;3829;50.798;4.358;2023-08-06T00:19:31;15.70;99.90
7576;DHT22;3829;50.798;4.358;2023-08-06T00:21:56;15.60;99.90
7576;DHT22;3829;50.798;4.358;2023-08-06T00:24:22;15.60;99.90
7576;DHT22;3829;50.798;4.358;2023-08-06T00:26:48;15.70;99.90
7576;DHT22;3829;50.798;4.358;2023-08-06T00:29:13;15.70;99.90
7576;DHT22;3829;50.798;4.358;2023-08-06T00:31:39;15.70;99.90
7576;DHT22;3829;50.798;4.358;2023-08-06T00:34:04;15.70;99.90
7576;DHT22;3829;50.798;4.358;2023-08-06T00:36:30;15.60;99.90
7576;DHT22;3829;50.798;4.358;2023-08-06T00:38:55;15.70;99.90
7576;DHT22;3829;50.798;4.358;2023-08-06T00:41:21;15.70;99.90
7576;DHT22;3829;50.798;4.358;2023-08-06T00:43:47;15.70;99.90
7576;DHT22;3829;50.798;4.358;2023-08-06T00:46:13;15.80;99.90
7576;DHT22;3829;50.798;4.358;2023-08-06T00:48:39;15.80;99.90
7576;DHT22;3829;50.798;4.358;2023-08-06T00:51:05;15.80;99.90
7576;DHT22;3829;50.798;4.358;2023-08-06T00:53:31;15.80;99.90
7576;DHT22;3829;50.798;4.358;2023-08-06T00:55:57;15.60;99.90
7576;DHT22;3829;50.798;4.358;2023-08-06T00:58:24;15.60;99.90
7576;DHT22;3829;50.798;4.358;2023-08-06T01:00:49;15.70;99.90
7576;DHT22;3829;50.798;4.358;2023-08-06T01:03:15;15.70;99.90
7576;DHT22;3829;50.798;4.358;2023-08-06T01:05:41;15.70;99.90
7576;DHT22;3829;50.798;4.358;2023-08-06T01:08:27;15.70;99.90
7576;DHT22;3829;50.798;4.358;2023-08-06T01:11:14;15.70;99.90
7576;DHT22;3829;50.798;4.358;2023-08-06T01:13:46;15.70;99.90
7576;DHT22;3829;50.798;4.358;2023-08-06T01:16:16;15.70;99.90
7576;DHT22;3829;50.798;4.358;2023-08-06T01:18:42;15.70;99.90
7576;DHT22;3829;50.798;4.358;2023-08-06T01:21:13;15.60;99.90
7576;DHT22;3829;50.798;4.358;2023-08-06T01:23:38;15.60;99.90
7576;DHT22;3829;50.798;4.358;2023-08-06T01:26:26;15.70;99.90
7576;DHT22;3829;50.798;4.358;2023-08-06T01:29:01;15.70;99.90
7576;DHT22;3829;50.798;4.358;2023-08-06T01:31:31;15.80;99.90
7576;DHT22;3829;50.798;4.358;2023-08-06T01:33:59;15.80;99.90
7576;DHT22;3829;50.798;4.358;2023-08-06T01:36:26;15.80;99.90
7576;DHT22;3829;50.798;4.358;2023-08-06T01:38:53;15.70;99.90
7576;DHT22;3829;50.798;4.358;2023-08-06T01:41:19;15.70;99.90
7576;DHT22;3829;50.798;4.358;2023-08-06T01:43:45;15.70;99.90
7576;DHT22;3829;50.798;4.358;2023-08-06T01:46:10;15.70;99.90
7576;DHT22;3829;50.798;4.358;2023-08-06T01:48:36;15.70;99.90
7576;DHT22;3829;50.798;4.358;2023-08-06T01:51:04;15.60;99.90
7576;DHT22;3829;50.798;4.358;2023-08-06T01:53:30;15.60;99.90
7576;DHT22;3829;50.798;4.358;2023-08-06T01:55:57;15.60;99.90
7576;DHT22;3829;50.798;4.358;2023-08-06T01:58:22;15.60;99.90
7576;DHT22;3829;50.798;4.358;2023-08-06T02:00:48;15.50;99.90
7576;DHT22;3829;50.798;4.358;2023-08-06T02:03:13;15.40;99.90
7576;DHT22;3829;50.798;4.358;2023-08-06T02:05:40;15.30;99.90
7576;DHT22;3829;50.798;4.358;2023-08-06T02:08:06;15.30;99.90
7576;DHT22;3829;50.798;4.358;2023-08-06T02:10:31;15.30;99.90
7576;DHT22;3829;50.798;4.358;2023-08-06T02:12:57;15.40;99.90
7576;DHT22;3829;50.798;4.358;2023-08-06T02:15:22;15.40;99.90
7576;DHT22;3829;50.798;4.358;2023-08-06T02:17:48;15.50;99.90
7576;DHT22;3829;50.798;4.358;2023-08-06T02:20:14;15.50;99.90
7576;DHT22;3829;50.798;4.358;2023-08-06T02:22:39;15.50;99.90
7576;DHT22;3829;50.798;4.358;2023-08-06T02:25:05;15.50;99.90
7576;DHT22;3829;50.798;4.358;2023-08-06T02:27:30;15.30;99.90
7576;DHT22;3829;50.798;4.358;2023-08-06T02:29:56;15.30;99.90
7576;DHT22;3829;50.798;4.358;2023-08-06T02:32:22;15.30;99.90
7576;DHT22;3829;50.798;4.358;2023-08-06T02:34:47;15.30;99.90
7576;DHT22;3829;50.798;4.358;2023-08-06T02:37:13;15.30;99.90
7576;DHT22;3829;50.798;4.358;2023-08-06T02:39:38;15.40;99.90
7576;DHT22;3829;50.798;4.358;2023-08-06T02:42:06;15.40;99.90
7576;DHT22;3829;50.798;4.358;2023-08-06T02:44:33;15.40;99.90
7576;DHT22;3829;50.798;4.358;2023-08-06T02:46:59;15.50;99.90
7576;DHT22;3829;50.798;4.358;2023-08-06T02:49:25;15.50;99.90
7576;DHT22;3829;50.798;4.358;2023-08-06T02:51:50;15.50;99.90
7576;DHT22;3829;50.798;4.358;2023-08-06T02:54:16;15.50;99.90
7576;DHT22;3829;50.798;4.358;2023-08-06T02:56:48;15.40;99.90
7576;DHT22;3829;50.798;4.358;2023-08-06T02:59:14;15.40;99.90
7576;DHT22;3829;50.798;4.358;2023-08-06T03:01:40;15.40;99.90
7576;DHT22;3829;50.798;4.358;2023-08-06T03:04:06;15.40;99.90
7576;DHT22;3829;50.798;4.358;2023-08-06T03:06:31;15.40;99.90
7576;DHT22;3829;50.798;4.358;2023-08-06T03:08:57;15.40;99.90
7576;DHT22;3829;50.798;4.358;2023-08-06T03:11:22;15.40;99.90
7576;DHT22;3829;50.798;4.358;2023-08-06T03:13:48;15.40;99.90
7576;DHT22;3829;50.798;4.358;2023-08-06T03:16:14;15.30;99.90
7576;DHT22;3829;50.798;4.358;2023-08-06T03:18:40;15.30;99.90
7576;DHT22;3829;50.798;4.358;2023-08-06T03:21:05;15.30;99.90
7576;DHT22;3829;50.798;4.358;2023-08-06T03:23:31;15.30;99.90
7576;DHT22;3829;50.798;4.358;2023-08-06T03:26:01;15.20;99.90
7576;DHT22;3829;50.798;4.358;2023-08-06T03:28:28;15.10;99.90
7576;DHT22;3829;50.798;4.358;2023-08-06T03:31:02;15.20;99.90
7576;DHT22;3829;50.798;4.358;2023-08-06T03:33:27;15.20;99.90
7576;DHT22;3829;50.798;4.358;2023-08-06T03:35:53;15.20;99.90
7576;DHT22;3829;50.798;4.358;2023-08-06T03:38:19;15.20;99.90
7576;DHT22;3829;50.798;4.358;2023-08-06T03:40:45;15.30;99.90
7576;DHT22;3829;50.798;4.358;2023-08-06T03:43:11;15.20;99.90
7576;DHT22;3829;50.798;4.358;2023-08-06T03:45:37;15.10;99.90
7576;DHT22;3829;50.798;4.358;2023-08-06T03:48:02;15.20;99.90
7576;DHT22;3829;50.798;4.358;2023-08-06T03:50:28;15.10;99.90
7576;DHT22;3829;50.798;4.358;2023-08-06T03:52:53;15.10;99.90
7576;DHT22;3829;50.798;4.358;2023-08-06T03:55:19;14.90;99.90
7576;DHT22;3829;50.798;4.358;2023-08-06T03:57:45;14.80;99.90
7576;DHT22;3829;50.798;4.358;2023-08-06T04:00:10;14.70;99.90
7576;DHT22;3829;50.798;4.358;2023-08-06T04:02:36;14.50;99.90
7576;DHT22;3829;50.798;4.358;2023-08-06T04:05:02;14.50;99.90
7576;DHT22;3829;50.798;4.358;2023-08-06T04:07:28;14.50;99.90
7576;DHT22;3829;50.798;4.358;2023-08-06T04:09:56;14.40;99.90
7576;DHT22;3829;50.798;4.358;2023-08-06T04:12:22;14.30;99.90
7576;DHT22;3829;50.798;4.358;2023-08-06T04:14:47;14.30;99.90
7576;DHT22;3829;50.798;4.358;2023-08-06T04:17:13;14.20;99.90
7576;DHT22;3829;50.798;4.358;2023-08-06T04:19:39;14.10;99.90
7576;DHT22;3829;50.798;4.358;2023-08-06T04:22:04;14.20;99.90
7576;DHT22;3829;50.798;4.358;2023-08-06T04:24:30;14.20;99.90
7576;DHT22;3829;50.798;4.358;2023-08-06T04:26:55;14.20;99.90
7576;DHT22;3829;50.798;4.358;2023-08-06T04:29:21;14.20;99.90
7576;DHT22;3829;50.798;4.358;2023-08-06T04:31:46;14.20;99.90
7576;DHT22;3829;50.798;4.358;2023-08-06T04:34:12;14.30;99.90
7576;DHT22;3829;50.798;4.358;2023-08-06T04:36:37;14.20;99.90
7576;DHT22;3829;50.798;4.358;2023-08-06T04:39:04;14.20;99.90
7576;DHT22;3829;50.798;4.358;2023-08-06T04:41:30;14.20;99.90
7576;DHT22;3829;50.798;4.358;2023-08-06T04:43:56;14.10;99.90
7576;DHT22;3829;50.798;4.358;2023-08-06T04:46:22;14.10;99.90
7576;DHT22;3829;50.798;4.358;2023-08-06T04:48:48;14.10;99.90
7576;DHT22;3829;50.798;4.358;2023-08-06T04:51:13;14.10;99.90
7576;DHT22;3829;50.798;4.358;2023-08-06T04:53:40;14.10;99.90
7576;DHT22;3829;50.798;4.358;2023-08-06T04:56:05;14.00;99.90
7576;DHT22;3829;50.798;4.358;2023-08-06T04:58:31;14.00;99.90
7576;DHT22;3829;50.798;4.358;2023-08-06T05:00:56;14.00;99.90
7576;DHT22;3829;50.798;4.358;2023-08-06T05:03:22;14.00;99.90
7576;DHT22;3829;50.798;4.358;2023-08-06T05:05:48;14.10;99.90
7576;DHT22;3829;50.798;4.358;2023-08-06T05:08:14;14.10;99.90
7576;DHT22;3829;50.798;4.358;2023-08-06T05:10:44;14.10;99.90
7576;DHT22;3829;50.798;4.358;2023-08-06T05:13:09;14.10;99.90
7576;DHT22;3829;50.798;4.358;2023-08-06T05:15:35;14.10;99.90
7576;DHT22;3829;50.798;4.358;2023-08-06T05:18:01;14.00;99.90
7576;DHT22;3829;50.798;4.358;2023-08-06T05:20:26;14.00;99.90
7576;DHT22;3829;50.798;4.358;2023-08-06T05:22:52;14.00;99.90
7576;DHT22;3829;50.798;4.358;2023-08-06T05:25:17;14.00;99.90
7576;DHT22;3829;50.798;4.358;2023-08-06T05:27:43;14.10;99.90
7576;DHT22;3829;50.798;4.358;2023-08-06T05:30:09;14.10;99.90
7576;DHT22;3829;50.798;4.358;2023-08-06T05:32:35;14.10;99.90
7576;DHT22;3829;50.798;4.358;2023-08-06T05:35:01;14.10;99.90
7576;DHT22;3829;50.798;4.358;2023-08-06T05:37:27;14.00;99.90
7576;DHT22;3829;50.798;4.358;2023-08-06T05:39:52;14.10;99.90
7576;DHT22;3829;50.798;4.358;2023-08-06T05:42:18;14.10;99.90
7576;DHT22;3829;50.798;4.358;2023-08-06T05:44:43;14.10;99.90
7576;DHT22;3829;50.798;4.358;2023-08-06T05:47:09;14.20;99.90
7576;DHT22;3829;50.798;4.358;2023-08-06T05:49:34;14.30;99.90
7576;DHT22;3829;50.798;4.358;2023-08-06T05:52:00;14.30;99.90
7576;DHT22;3829;50.798;4.358;2023-08-06T05:54:25;14.30;99.90
7576;DHT22;3829;50.798;4.358;2023-08-06T05:56:51;14.30;99.90
7576;DHT22;3829;50.798;4.358;2023-08-06T05:59:17;14.40;99.90
7576;DHT22;3829;50.798;4.358;2023-08-06T06:01:42;14.40;99.90
7576;DHT22;3829;50.798;4.358;2023-08-06T06:04:08;14.30;99.90
7576;DHT22;3829;50.798;4.358;2023-08-06T06:06:33;14.40;99.90
7576;DHT22;3829;50.798;4.358;2023-08-06T06:08:59;14.30;99.90
7576;DHT22;3829;50.798;4.358;2023-08-06T06:11:24;14.30;99.90
7576;DHT22;3829;50.798;4.358;2023-08-06T06:13:51;14.30;99.90
7576;DHT22;3829;50.798;4.358;2023-08-06T06:16:16;14.40;99.90
7576;DHT22;3829;50.798;4.358;2023-08-06T06:18:42;14.60;99.90
7576;DHT22;3829;50.798;4.358;2023-08-06T06:21:07;14.60;99.90
7576;DHT22;3829;50.798;4.358;2023-08-06T06:23:33;14.60;99.90
7576;DHT22;3829;50.798;4.358;2023-08-06T06:25:59;14.80;99.90
7576;DHT22;3829;50.798;4.358;2023-08-06T06:28:24;14.60;99.90
7576;DHT22;3829;50.798;4.358;2023-08-06T06:30:51;14.70;99.90
7576;DHT22;3829;50.798;4.358;2023-08-06T06:33:17;14.80;99.90
7576;DHT22;3829;50.798;4.358;2023-08-06T06:35:42;15.00;99.90
7576;DHT22;3829;50.798;4.358;2023-08-06T06:38:08;15.00;99.90
7576;DHT22;3829;50.798;4.358;2023-08-06T06:40:34;15.20;99.90
7576;DHT22;3829;50.798;4.358;2023-08-06T06:42:59;15.00;99.90
7576;DHT22;3829;50.798;4.358;2023-08-06T06:45:25;15.00;99.90
7576;DHT22;3829;50.798;4.358;2023-08-06T06:47:50;15.00;99.90
7576;DHT22;3829;50.798;4.358;2023-08-06T06:50:16;15.00;99.90
7576;DHT22;3829;50.798;4.358;2023-08-06T06:52:42;15.00;99.90
7576;DHT22;3829;50.798;4.358;2023-08-06T06:55:07;14.90;99.90
7576;DHT22;3829;50.798;4.358;2023-08-06T06:57:33;14.80;99.90
7576;DHT22;3829;50.798;4.358;2023-08-06T06:59:58;14.90;99.90
7576;DHT22;3829;50.798;4.358;2023-08-06T07:02:24;14.70;99.90
7576;DHT22;3829;50.798;4.358;2023-08-06T07:04:50;14.70;99.90
7576;DHT22;3829;50.798;4.358;2023-08-06T07:07:16;14.70;99.90
7576;DHT22;3829;50.798;4.358;2023-08-06T07:09:41;14.60;99.90
7576;DHT22;3829;50.798;4.358;2023-08-06T07:12:07;14.60;99.90
7576;DHT22;3829;50.798;4.358;2023-08-06T07:14:33;14.60;99.90
7576;DHT22;3829;50.798;4.358;2023-08-06T07:16:58;14.70;99.90
7576;DHT22;3829;50.798;4.358;2023-08-06T07:19:24;14.80;99.90
7576;DHT22;3829;50.798;4.358;2023-08-06T07:21:49;14.80;99.90
7576;DHT22;3829;50.798;4.358;2023-08-06T07:24:15;14.90;99.90
7576;DHT22;3829;50.798;4.358;2023-08-06T07:26:41;14.90;99.90
7576;DHT22;3829;50.798;4.358;2023-08-06T07:29:07;15.00;99.90
7576;DHT22;3829;50.798;4.358;2023-08-06T07:31:32;14.80;99.90
7576;DHT22;3829;50.798;4.358;2023-08-06T07:33:58;14.80;99.90
7576;DHT22;3829;50.798;4.358;2023-08-06T07:36:23;14.90;99.90
7576;DHT22;3829;50.798;4.358;2023-08-06T07:38:49;14.80;99.90
7576;DHT22;3829;50.798;4.358;2023-08-06T07:41:21;15.00;99.90
7576;DHT22;3829;50.798;4.358;2023-08-06T07:43:46;14.90;99.90
7576;DHT22;3829;50.798;4.358;2023-08-06T07:46:12;14.80;99.90
7576;DHT22;3829;50.798;4.358;2023-08-06T07:48:38;14.90;99.90
7576;DHT22;3829;50.798;4.358;2023-08-06T07:51:04;14.90;99.90
7576;DHT22;3829;50.798;4.358;2023-08-06T07:53:30;15.10;99.90
7576;DHT22;3829;50.798;4.358;2023-08-06T07:55:56;15.00;99.90
7576;DHT22;3829;50.798;4.358;2023-08-06T07:58:23;15.00;99.90
7576;DHT22;3829;50.798;4.358;2023-08-06T08:00:49;15.10;99.90
7576;DHT22;3829;50.798;4.358;2023-08-06T08:03:15;15.20;99.90
7576;DHT22;3829;50.798;4.358;2023-08-06T08:05:43;15.30;99.90
7576;DHT22;3829;50.798;4.358;2023-08-06T08:08:09;15.40;99.90
7576;DHT22;3829;50.798;4.358;2023-08-06T08:10:35;15.40;99.90
7576;DHT22;3829;50.798;4.358;2023-08-06T08:13:02;15.40;99.90
7576;DHT22;3829;50.798;4.358;2023-08-06T08:15:29;15.60;99.90
7576;DHT22;3829;50.798;4.358;2023-08-06T08:17:55;15.70;99.90
7576;DHT22;3829;50.798;4.358;2023-08-06T08:20:21;15.80;99.90
7576;DHT22;3829;50.798;4.358;2023-08-06T08:22:47;15.60;99.90
7576;DHT22;3829;50.798;4.358;2023-08-06T08:25:13;15.50;99.90
7576;DHT22;3829;50.798;4.358;2023-08-06T08:27:39;15.30;99.90
7576;DHT22;3829;50.798;4.358;2023-08-06T08:30:05;15.00;99.90
7576;DHT22;3829;50.798;4.358;2023-08-06T08:32:31;14.80;99.90
7576;DHT22;3829;50.798;4.358;2023-08-06T08:34:56;14.80;99.90
7576;DHT22;3829;50.798;4.358;2023-08-06T08:37:23;14.70;99.90
7576;DHT22;3829;50.798;4.358;2023-08-06T08:39:48;14.70;99.90
7576;DHT22;3829;50.798;4.358;2023-08-06T08:42:15;14.50;99.90
7576;DHT22;3829;50.798;4.358;2023-08-06T08:44:42;14.70;99.90
7576;DHT22;3829;50.798;4.358;2023-08-06T08:47:08;14.80;99.90
7576;DHT22;3829;50.798;4.358;2023-08-06T08:49:35;14.90;99.90
7576;DHT22;3829;50.798;4.358;2023-08-06T08:52:02;15.10;99.90
7576;DHT22;3829;50.798;4.358;2023-08-06T08:54:31;15.20;99.90
7576;DHT22;3829;50.798;4.358;2023-08-06T08:56:57;15.40;99.90
7576;DHT22;3829;50.798;4.358;2023-08-06T08:59:23;15.30;99.90
7576;DHT22;3829;50.798;4.358;2023-08-06T09:01:49;15.10;99.90
7576;DHT22;3829;50.798;4.358;2023-08-06T09:04:17;15.20;99.90
7576;DHT22;3829;50.798;4.358;2023-08-06T09:06:46;15.10;99.90
7576;DHT22;3829;50.798;4.358;2023-08-06T09:09:16;15.10;99.90
7576;DHT22;3829;50.798;4.358;2023-08-06T09:11:44;15.00;99.90
7576;DHT22;3829;50.798;4.358;2023-08-06T09:14:11;15.20;99.90
7576;DHT22;3829;50.798;4.358;2023-08-06T09:16:37;15.20;99.90
7576;DHT22;3829;50.798;4.358;2023-08-06T09:19:11;15.00;99.90
7576;DHT22;3829;50.798;4.358;2023-08-06T09:21:39;14.80;99.90
7576;DHT22;3829;50.798;4.358;2023-08-06T09:24:12;14.80;99.90
7576;DHT22;3829;50.798;4.358;2023-08-06T09:26:39;14.80;99.90
7576;DHT22;3829;50.798;4.358;2023-08-06T09:29:06;14.70;99.90
7576;DHT22;3829;50.798;4.358;2023-08-06T09:31:39;14.60;99.90
7576;DHT22;3829;50.798;4.358;2023-08-06T09:34:14;14.50;99.90
7576;DHT22;3829;50.798;4.358;2023-08-06T09:36:42;14.50;99.90
7576;DHT22;3829;50.798;4.358;2023-08-06T09:39:17;14.40;99.90
7576;DHT22;3829;50.798;4.358;2023-08-06T09:41:43;14.30;99.90
7576;DHT22;3829;50.798;4.358;2023-08-06T09:44:20;14.30;99.90
7576;DHT22;3829;50.798;4.358;2023-08-06T09:46:49;14.20;99.90
7576;DHT22;3829;50.798;4.358;2023-08-06T09:49:17;14.20;99.90
7576;DHT22;3829;50.798;4.358;2023-08-06T09:51:43;14.10;99.90
7576;DHT22;3829;50.798;4.358;2023-08-06T09:54:12;14.10;99.90
7576;DHT22;3829;50.798;4.358;2023-08-06T09:56:38;14.10;99.90
7576;DHT22;3829;50.798;4.358;2023-08-06T09:59:05;14.20;99.90
7576;DHT22;3829;50.798;4.358;2023-08-06T10:01:34;14.20;99.90
7576;DHT22;3829;50.798;4.358;2023-08-06T10:04:03;14.30;99.90
7576;DHT22;3829;50.798;4.358;2023-08-06T10:06:31;14.30;99.90
7576;DHT22;3829;50.798;4.358;2023-08-06T10:08:58;14.30;99.90
7576;DHT22;3829;50.798;4.358;2023-08-06T10:11:24;14.40;99.90
7576;DHT22;3829;50.798;4.358;2023-08-06T10:13:55;14.40;99.90
7576;DHT22;3829;50.798;4.358;2023-08-06T10:16:23;14.50;99.90
7576;DHT22;3829;50.798;4.358;2023-08-06T10:18:50;14.50;99.90
7576;DHT22;3829;50.798;4.358;2023-08-06T10:21:16;14.50;99.90
7576;DHT22;3829;50.798;4.358;2023-08-06T10:23:42;14.50;99.90
7576;DHT22;3829;50.798;4.358;2023-08-06T10:26:07;14.40;99.90
7576;DHT22;3829;50.798;4.358;2023-08-06T10:28:38;14.50;99.90
7576;DHT22;3829;50.798;4.358;2023-08-06T10:31:04;14.40;99.90
7576;DHT22;3829;50.798;4.358;2023-08-06T10:33:44;14.50;99.90
7576;DHT22;3829;50.798;4.358;2023-08-06T10:36:10;14.50;99.90
7576;DHT22;3829;50.798;4.358;2023-08-06T10:38:44;14.40;99.90
7576;DHT22;3829;50.798;4.358;2023-08-06T10:41:23;14.40;99.90
7576;DHT22;3829;50.798;4.358;2023-08-06T10:43:52;14.40;99.90
7576;DHT22;3829;50.798;4.358;2023-08-06T10:46:30;14.40;99.90
7576;DHT22;3829;50.798;4.358;2023-08-06T10:48:55;14.40;99.90
7576;DHT22;3829;50.798;4.358;2023-08-06T10:51:21;14.50;99.90
7576;DHT22;3829;50.798;4.358;2023-08-06T10:53:48;14.60;99.90
7576;DHT22;3829;50.798;4.358;2023-08-06T10:56:16;14.80;99.90
7576;DHT22;3829;50.798;4.358;2023-08-06T10:58:44;14.80;99.90
7576;DHT22;3829;50.798;4.358;2023-08-06T11:01:10;15.10;99.90
7576;DHT22;3829;50.798;4.358;2023-08-06T11:03:37;15.20;99.90
7576;DHT22;3829;50.798;4.358;2023-08-06T11:06:04;15.30;99.90
7576;DHT22;3829;50.798;4.358;2023-08-06T11:08:34;15.30;99.90
7576;DHT22;3829;50.798;4.358;2023-08-06T11:11:09;15.50;99.90
7576;DHT22;3829;50.798;4.358;2023-08-06T11:13:37;15.50;99.90
7576;DHT22;3829;50.798;4.358;2023-08-06T11:16:04;15.60;99.90
7576;DHT22;3829;50.798;4.358;2023-08-06T11:18:30;15.40;99.90
7576;DHT22;3829;50.798;4.358;2023-08-06T11:20:58;15.30;99.90
7576;DHT22;3829;50.798;4.358;2023-08-06T11:23:28;15.40;99.90
7576;DHT22;3829;50.798;4.358;2023-08-06T11:25:56;15.40;99.90
7576;DHT22;3829;50.798;4.358;2023-08-06T11:28:21;15.60;99.90
7576;DHT22;3829;50.798;4.358;2023-08-06T11:30:48;15.70;99.90
7576;DHT22;3829;50.798;4.358;2023-08-06T11:33:14;15.80;99.90
7576;DHT22;3829;50.798;4.358;2023-08-06T11:35:40;15.90;99.90
7576;DHT22;3829;50.798;4.358;2023-08-06T11:38:06;16.00;99.90
7576;DHT22;3829;50.798;4.358;2023-08-06T11:40:32;16.10;99.90
7576;DHT22;3829;50.798;4.358;2023-08-06T11:42:58;16.00;99.90
7576;DHT22;3829;50.798;4.358;2023-08-06T11:45:24;15.80;99.90
7576;DHT22;3829;50.798;4.358;2023-08-06T11:47:51;15.30;99.90
7576;DHT22;3829;50.798;4.358;2023-08-06T11:50:26;14.80;99.90
7576;DHT22;3829;50.798;4.358;2023-08-06T11:52:57;14.50;99.90
7576;DHT22;3829;50.798;4.358;2023-08-06T11:55:24;14.30;99.90
7576;DHT22;3829;50.798;4.358;2023-08-06T11:57:50;14.30;99.90
7576;DHT22;3829;50.798;4.358;2023-08-06T12:00:16;14.20;99.90
7576;DHT22;3829;50.798;4.358;2023-08-06T12:02:45;14.20;99.90
7576;DHT22;3829;50.798;4.358;2023-08-06T12:05:16;14.20;99.90
7576;DHT22;3829;50.798;4.358;2023-08-06T12:07:44;14.40;99.90
7576;DHT22;3829;50.798;4.358;2023-08-06T12:10:12;14.40;99.90
7576;DHT22;3829;50.798;4.358;2023-08-06T12:12:38;14.40;99.90
7576;DHT22;3829;50.798;4.358;2023-08-06T12:15:05;14.40;99.90
7576;DHT22;3829;50.798;4.358;2023-08-06T12:17:32;14.30;99.90
7576;DHT22;3829;50.798;4.358;2023-08-06T12:19:58;14.40;99.90
7576;DHT22;3829;50.798;4.358;2023-08-06T12:22:24;14.40;99.90
7576;DHT22;3829;50.798;4.358;2023-08-06T12:24:50;14.60;99.90
7576;DHT22;3829;50.798;4.358;2023-08-06T12:27:16;14.70;99.90
7576;DHT22;3829;50.798;4.358;2023-08-06T12:29:44;14.90;99.90
7576;DHT22;3829;50.798;4.358;2023-08-06T12:32:10;15.00;99.90
7576;DHT22;3829;50.798;4.358;2023-08-06T12:34:37;15.30;99.90
7576;DHT22;3829;50.798;4.358;2023-08-06T12:37:02;15.30;99.90
7576;DHT22;3829;50.798;4.358;2023-08-06T12:39:28;15.30;99.90
7576;DHT22;3829;50.798;4.358;2023-08-06T12:41:55;15.40;99.90
7576;DHT22;3829;50.798;4.358;2023-08-06T12:44:23;15.30;99.90
7576;DHT22;3829;50.798;4.358;2023-08-06T12:46:48;15.00;99.90
7576;DHT22;3829;50.798;4.358;2023-08-06T12:49:14;14.90;99.90
7576;DHT22;3829;50.798;4.358;2023-08-06T12:51:39;14.70;99.90
7576;DHT22;3829;50.798;4.358;2023-08-06T12:54:05;14.60;99.90
7576;DHT22;3829;50.798;4.358;2023-08-06T12:56:30;14.70;99.90
7576;DHT22;3829;50.798;4.358;2023-08-06T12:58:56;14.90;99.90
7576;DHT22;3829;50.798;4.358;2023-08-06T13:01:21;15.00;99.90
7576;DHT22;3829;50.798;4.358;2023-08-06T13:03:47;15.00;99.90
7576;DHT22;3829;50.798;4.358;2023-08-06T13:06:13;14.90;99.90
7576;DHT22;3829;50.798;4.358;2023-08-06T13:08:38;14.80;99.90
7576;DHT22;3829;50.798;4.358;2023-08-06T13:11:04;14.90;99.90
7576;DHT22;3829;50.798;4.358;2023-08-06T13:13:30;15.00;99.90
7576;DHT22;3829;50.798;4.358;2023-08-06T13:15:56;14.90;99.90
7576;DHT22;3829;50.798;4.358;2023-08-06T13:18:21;14.90;99.90
7576;DHT22;3829;50.798;4.358;2023-08-06T13:20:47;15.00;99.90
7576;DHT22;3829;50.798;4.358;2023-08-06T13:23:14;15.00;99.90
7576;DHT22;3829;50.798;4.358;2023-08-06T13:25:42;14.90;99.90
7576;DHT22;3829;50.798;4.358;2023-08-06T13:28:08;14.80;99.90
7576;DHT22;3829;50.798;4.358;2023-08-06T13:30:33;14.80;99.90
7576;DHT22;3829;50.798;4.358;2023-08-06T13:33:01;14.70;99.90
7576;DHT22;3829;50.798;4.358;2023-08-06T13:35:27;14.70;99.90
7576;DHT22;3829;50.798;4.358;2023-08-06T13:37:52;14.60;99.90
7576;DHT22;3829;50.798;4.358;2023-08-06T13:40:19;14.60;99.90
7576;DHT22;3829;50.798;4.358;2023-08-06T13:42:45;14.60;99.90
7576;DHT22;3829;50.798;4.358;2023-08-06T13:45:10;14.60;99.90
7576;DHT22;3829;50.798;4.358;2023-08-06T13:47:36;14.60;99.90
7576;DHT22;3829;50.798;4.358;2023-08-06T13:50:02;14.50;99.90
7576;DHT22;3829;50.798;4.358;2023-08-06T13:52:28;14.40;99.90
7576;DHT22;3829;50.798;4.358;2023-08-06T13:54:54;14.50;99.90
7576;DHT22;3829;50.798;4.358;2023-08-06T13:57:20;14.40;99.90
7576;DHT22;3829;50.798;4.358;2023-08-06T13:59:45;14.30;99.90
7576;DHT22;3829;50.798;4.358;2023-08-06T14:02:11;14.20;99.90
7576;DHT22;3829;50.798;4.358;2023-08-06T14:04:36;14.30;99.90
7576;DHT22;3829;50.798;4.358;2023-08-06T14:07:05;14.20;99.90
7576;DHT22;3829;50.798;4.358;2023-08-06T14:09:31;14.30;99.90
7576;DHT22;3829;50.798;4.358;2023-08-06T14:11:56;14.20;99.90
7576;DHT22;3829;50.798;4.358;2023-08-06T14:14:22;14.30;99.90
7576;DHT22;3829;50.798;4.358;2023-08-06T14:16:52;14.20;99.90
7576;DHT22;3829;50.798;4.358;2023-08-06T14:19:17;14.20;99.90
7576;DHT22;3829;50.798;4.358;2023-08-06T14:21:43;14.20;99.90
7576;DHT22;3829;50.798;4.358;2023-08-06T14:24:08;14.10;99.90
7576;DHT22;3829;50.798;4.358;2023-08-06T14:26:34;14.20;99.90
7576;DHT22;3829;50.798;4.358;2023-08-06T14:29:00;14.30;99.90
7576;DHT22;3829;50.798;4.358;2023-08-06T14:31:26;14.40;99.90
7576;DHT22;3829;50.798;4.358;2023-08-06T14:33:52;14.30;99.90
7576;DHT22;3829;50.798;4.358;2023-08-06T14:36:18;14.10;99.90
7576;DHT22;3829;50.798;4.358;2023-08-06T14:38:43;14.10;99.90
7576;DHT22;3829;50.798;4.358;2023-08-06T14:41:09;14.00;99.90
7576;DHT22;3829;50.798;4.358;2023-08-06T14:43:34;14.10;99.90
7576;DHT22;3829;50.798;4.358;2023-08-06T14:46:00;14.10;99.90
7576;DHT22;3829;50.798;4.358;2023-08-06T14:48:26;14.20;99.90
7576;DHT22;3829;50.798;4.358;2023-08-06T14:50:51;14.40;99.90
7576;DHT22;3829;50.798;4.358;2023-08-06T14:53:17;14.40;99.90
7576;DHT22;3829;50.798;4.358;2023-08-06T14:55:42;14.40;99.90
7576;DHT22;3829;50.798;4.358;2023-08-06T14:58:08;14.40;99.90
7576;DHT22;3829;50.798;4.358;2023-08-06T15:00:33;14.50;99.90
7576;DHT22;3829;50.798;4.358;2023-08-06T15:02:59;14.60;99.90
7576;DHT22;3829;50.798;4.358;2023-08-06T15:05:25;14.80;99.90
7576;DHT22;3829;50.798;4.358;2023-08-06T15:07:51;14.90;99.90
7576;DHT22;3829;50.798;4.358;2023-08-06T15:10:18;15.00;99.90
7576;DHT22;3829;50.798;4.358;2023-08-06T15:12:44;15.30;99.90
7576;DHT22;3829;50.798;4.358;2023-08-06T15:15:10;15.40;99.90
7576;DHT22;3829;50.798;4.358;2023-08-06T15:17:35;15.50;99.90
7576;DHT22;3829;50.798;4.358;2023-08-06T15:20:01;15.40;99.90
7576;DHT22;3829;50.798;4.358;2023-08-06T15:22:27;15.50;99.90
7576;DHT22;3829;50.798;4.358;2023-08-06T15:24:52;15.40;99.90
7576;DHT22;3829;50.798;4.358;2023-08-06T15:27:18;15.30;99.90
7576;DHT22;3829;50.798;4.358;2023-08-06T15:29:44;15.30;99.90
7576;DHT22;3829;50.798;4.358;2023-08-06T15:32:10;15.20;99.90
7576;DHT22;3829;50.798;4.358;2023-08-06T15:34:36;15.00;99.90
7576;DHT22;3829;50.798;4.358;2023-08-06T15:37:01;14.90;99.90
7576;DHT22;3829;50.798;4.358;2023-08-06T15:39:27;14.70;99.90
7576;DHT22;3829;50.798;4.358;2023-08-06T15:41:53;15.00;99.90
7576;DHT22;3829;50.798;4.358;2023-08-06T15:44:18;15.20;99.90
7576;DHT22;3829;50.798;4.358;2023-08-06T15:46:44;15.40;99.90
7576;DHT22;3829;50.798;4.358;2023-08-06T15:49:09;15.60;99.90
7576;DHT22;3829;50.798;4.358;2023-08-06T15:51:35;15.70;99.90
7576;DHT22;3829;50.798;4.358;2023-08-06T15:54:01;15.90;99.90
7576;DHT22;3829;50.798;4.358;2023-08-06T15:56:27;16.10;99.90